createdAt,value
2023-08-26T06:47:50.564Z,22.60
2023-08-26T06:50:46.454Z,22.80
2023-08-26T06:57:08.539Z,22.80
2023-08-26T07:00:45.989Z,22.90
2023-08-26T07:33:09.538Z,23.60
2023-08-26T07:40:37.811Z,24.00
2023-08-26T07:45:25.079Z,24.10
2023-08-26T07:50:36.769Z,24.40
2023-08-26T07:53:54.977Z,24.50
2023-08-26T08:00:26.657Z,24.60
2023-08-26T08:13:49.669Z,27.70
2023-08-26T08:19:25.109Z,24.80
2023-08-26T08:19:59.979Z,29.50
2023-08-26T08:22:57.945Z,30.10
2023-08-26T08:25:32.938Z,30.60
2023-08-26T08:28:16.283Z,30.50
2023-08-26T08:31:03.459Z,31.00
2023-08-26T08:34:12.527Z,31.50
2023-08-26T08:37:09.593Z,31.70
2023-08-26T08:43:20.244Z,31.50
2023-08-26T08:45:55.798Z,31.40
2023-08-26T08:49:03.016Z,31.80
2023-08-26T08:52:06.623Z,31.60
2023-08-26T08:54:59.107Z,31.60
2023-08-26T09:00:42.403Z,31.60
2023-08-26T09:03:31.131Z,31.60
2023-08-26T09:06:30.016Z,31.30
2023-08-26T09:09:45.523Z,31.20
2023-08-26T09:15:53.519Z,31.90
2023-08-26T09:18:39.782Z,31.40
2023-08-26T09:21:21.935Z,31.60
2023-08-26T09:24:01.428Z,31.80
2023-08-26T09:27:01.201Z,32.10
2023-08-26T09:29:30.713Z,32.30
2023-08-26T09:32:02.359Z,32.20
2023-08-26T09:34:41.196Z,32.40
2023-08-26T09:37:35.185Z,32.30
2023-08-26T09:40:24.306Z,32.70
2023-08-26T09:42:59.549Z,33.10
2023-08-26T09:53:17.557Z,33.90
2023-08-26T10:50:56.308Z,31.60
2023-08-26T13:04:26.820Z,32.80
2023-08-26T13:08:26.784Z,32.90
2023-08-26T14:20:26.240Z,30.60
2023-08-26T15:48:33.592Z,28.40
2023-08-26T16:01:08.577Z,28.20
2023-08-26T16:06:45.382Z,28.10
2023-08-26T16:17:28.495Z,28.00
2023-08-26T16:20:02.652Z,28.00
2023-08-26T16:22:50.705Z,28.00
2023-08-26T16:25:31.518Z,28.00
2023-08-26T16:28:53.831Z,27.70
2023-08-26T16:31:28.005Z,27.50
2023-08-26T16:34:07.585Z,27.50
2023-08-26T16:36:40.832Z,27.40
2023-08-26T16:39:15.444Z,27.40
2023-08-26T16:42:11.340Z,27.40
2023-08-26T16:45:13.045Z,27.30
2023-08-26T16:47:52.822Z,27.30
2023-08-26T16:50:55.374Z,27.20
2023-08-26T16:53:34.882Z,27.30
2023-08-26T16:56:25.673Z,27.40
2023-08-26T16:59:10.934Z,27.30
2023-08-26T17:02:31.292Z,27.40
2023-08-26T17:05:21.244Z,27.30
2023-08-26T17:08:12.658Z,27.30
2023-08-26T17:11:09.027Z,27.20
2023-08-26T17:14:00.334Z,27.30
2023-08-26T17:16:46.476Z,27.20
2023-08-26T17:19:38.924Z,27.20
2023-08-26T17:22:20.449Z,27.10
2023-08-26T17:27:35.344Z,27.10
2023-08-26T17:30:10.949Z,27.00
2023-08-26T17:32:55.200Z,26.90
2023-08-26T17:35:40.725Z,26.90
2023-08-26T17:38:44.963Z,26.70
2023-08-26T17:41:33.658Z,26.70
2023-08-26T17:44:15.002Z,26.60
2023-08-26T17:46:47.141Z,26.60
2023-08-26T17:49:27.588Z,26.40
2023-08-26T17:51:59.942Z,26.30
2023-08-26T17:55:08.403Z,26.30
2023-08-26T18:01:52.895Z,26.20
2023-08-26T18:05:08.082Z,26.10
2023-08-26T18:11:26.697Z,25.90
2023-08-26T18:14:02.103Z,26.00
2023-08-26T18:16:34.535Z,25.80
2023-08-26T18:19:05.373Z,25.70
2023-08-26T18:21:37.883Z,25.60
2023-08-26T18:24:11.315Z,25.60
2023-08-26T18:26:51.485Z,25.50
2023-08-26T18:37:21.068Z,25.30
2023-08-26T18:40:24.770Z,25.20
2023-08-26T18:43:12.717Z,25.20
2023-08-26T18:46:05.565Z,25.10
2023-08-26T18:49:06.075Z,25.00
2023-08-26T18:51:40.849Z,24.90
2023-08-26T18:54:21.411Z,24.90
2023-08-26T18:56:54.500Z,24.80
2023-08-26T19:31:46.408Z,24.20
2023-08-26T19:34:21.729Z,24.00
2023-08-26T19:36:53.314Z,24.00
2023-08-26T19:39:20.963Z,24.00
2023-08-26T19:41:51.379Z,23.90
2023-08-26T19:44:27.754Z,23.90
2023-08-26T19:47:11.288Z,23.90
2023-08-26T19:50:00.243Z,23.80
2023-08-26T19:58:37.956Z,23.70
2023-08-26T20:01:08.235Z,23.60
2023-08-26T20:03:39.680Z,23.60
2023-08-26T20:06:11.269Z,23.60
2023-08-26T20:12:14.442Z,23.60
2023-08-26T20:15:25.431Z,23.50
2023-08-26T20:18:01.984Z,23.40
2023-08-26T20:20:33.481Z,23.40
2023-08-26T20:23:30.628Z,23.40
2023-08-26T20:26:20.271Z,23.30
2023-08-26T20:28:59.165Z,23.40
2023-08-26T20:31:54.783Z,23.40
2023-08-26T20:35:00.355Z,23.30
2023-08-26T20:37:49.039Z,23.30
2023-08-26T20:43:45.488Z,23.20
2023-08-26T20:46:20.707Z,23.10
2023-08-26T20:48:52.968Z,23.10
2023-08-26T20:51:41.072Z,23.00
2023-08-26T20:54:18.085Z,23.00
2023-08-26T20:56:47.230Z,23.00
2023-08-26T20:59:29.917Z,23.10
2023-08-26T21:02:01.997Z,23.00
2023-08-26T21:04:54.404Z,23.00
2023-08-26T21:10:35.838Z,22.90
2023-08-26T21:13:15.534Z,22.90
2023-08-26T21:15:47.253Z,22.90
2023-08-26T21:18:40.085Z,22.80
2023-08-26T21:24:11.836Z,22.70
2023-08-26T21:26:53.439Z,22.70
2023-08-26T21:29:23.657Z,22.60
2023-08-26T21:31:59.804Z,22.60
2023-08-26T21:35:11.656Z,22.60
2023-08-26T21:58:42.368Z,22.40
2023-08-26T23:22:24.169Z,21.80
2023-08-26T23:25:17.095Z,22.00
2023-08-26T23:31:55.920Z,21.90
2023-08-26T23:35:13.609Z,21.80
2023-08-26T23:41:52.517Z,21.80
2023-08-26T23:44:34.862Z,21.70
2023-08-26T23:47:10.382Z,21.60
2023-08-26T23:49:51.502Z,21.60
2023-08-26T23:52:24.543Z,21.60
2023-08-26T23:55:11.125Z,21.60
2023-08-26T23:57:47.174Z,21.50
